Archiv-/Tagesdaten

--Timestamp---	Temp	Chill	HIndex	Humid	Dewpt	 Wind 	HiWind	WindDir	Rain 	Barom	Solar	 ET  	 UV 
--------------	----	-----	------	-----	-----	------	------	-------	-----	-----	-----	-----	----
20110519 00:00	14.2	14.2	14.2	75	9.9	0	5	112	0.0	1014.9	0	0.025	0.0
20110519 00:05	14.2	14.2	14.2	75	9.8	0	3	112	0.0	1014.8	0	0.000	0.0
20110519 00:10	14.2	14.2	14.2	75	9.8	0	3	112	0.0	1014.9	0	0.000	0.0
20110519 00:15	14.2	14.2	14.2	75	9.8	0	5	112	0.0	1014.9	0	0.000	0.0
20110519 00:20	14.2	14.2	14.2	75	9.8	0	2	112	0.0	1014.8	0	0.000	0.0
20110519 00:25	14.1	14.1	14.1	75	9.7	0	3	112	0.0	1014.8	0	0.000	0.0
20110519 00:30	14.0	14.0	14.0	75	9.6	0	0	-100000	0.0	1014.8	0	0.000	0.0
20110519 00:35	13.9	13.9	13.9	76	9.8	0	2	112	0.0	1014.8	0	0.000	0.0
20110519 00:40	13.8	13.8	13.8	76	9.7	0	0	-100000	0.0	1014.7	0	0.000	0.0
20110519 00:45	13.7	13.7	13.7	76	9.6	0	0	-100000	0.0	1014.7	0	0.000	0.0
20110519 00:50	13.6	13.6	13.6	77	9.6	0	0	-100000	0.0	1014.7	0	0.000	0.0
20110519 00:55	13.4	13.4	13.4	77	9.5	0	0	-100000	0.0	1014.8	-100000	0.000	0.0
20110519 01:00	13.3	13.3	13.3	78	9.6	0	2	112	0.0	1014.7	-100000	0.025	0.0
20110519 01:05	13.2	13.2	13.2	78	9.5	0	3	112	0.0	1014.6	0	0.000	0.0
20110519 01:10	13.2	13.2	13.2	78	9.4	0	2	112	0.0	1014.5	0	0.000	0.0
20110519 01:15	13.1	13.1	13.1	79	9.5	0	0	-100000	0.0	1014.4	0	0.000	0.0
20110519 01:20	13.1	13.1	13.1	79	9.5	0	0	-100000	0.0	1014.5	0	0.000	0.0
20110519 01:25	12.9	12.9	12.9	79	9.4	0	0	-100000	0.0	1014.5	0	0.000	0.0
20110519 01:30	12.8	12.8	12.8	79	9.2	0	2	112	0.0	1014.4	0	0.000	0.0
20110519 01:35	12.7	12.7	12.7	80	9.3	0	2	112	0.0	1014.5	0	0.000	0.0
20110519 01:40	12.5	12.5	12.5	81	9.3	2	5	112	0.0	1014.6	0	0.000	0.0
20110519 01:45	12.3	12.3	12.3	81	9.2	0	5	112	0.0	1014.7	0	0.000	0.0
20110519 01:50	12.2	12.2	12.2	82	9.2	0	0	-100000	0.0	1014.6	0	0.000	0.0
20110519 01:55	12.2	12.2	12.2	82	9.2	0	0	-100000	0.0	1014.6	0	0.000	0.0
20110519 02:00	12.1	12.1	12.1	82	9.1	0	0	-100000	0.0	1014.7	0	0.025	0.0
20110519 02:05	12.1	12.1	12.1	83	9.3	0	0	-100000	0.0	1014.6	0	0.000	0.0
20110519 02:10	12.0	12.0	12.0	83	9.2	2	3	112	0.0	1014.5	0	0.000	0.0
20110519 02:15	12.0	12.0	12.0	83	9.2	2	5	112	0.0	1014.5	0	0.000	0.0
20110519 02:20	12.1	12.1	12.1	83	9.3	2	5	112	0.0	1014.6	0	0.000	0.0
20110519 02:25	12.2	12.2	12.2	82	9.2	5	6	180	0.0	1014.6	0	0.000	0.0
20110519 02:30	12.2	12.2	12.2	82	9.2	5	8	180	0.0	1014.6	0	0.000	0.0
20110519 02:35	12.1	12.1	12.1	82	9.1	6	8	180	0.0	1014.6	0	0.000	0.0
20110519 02:40	12.1	12.1	12.1	82	9.1	3	6	180	0.0	1014.7	0	0.000	0.0
20110519 02:45	12.1	12.1	12.1	82	9.1	5	6	180	0.0	1014.7	0	0.000	0.0
20110519 02:50	12.1	12.1	12.1	82	9.1	2	6	180	0.0	1014.6	0	0.000	0.0
20110519 02:55	12.1	12.1	12.1	82	9.1	2	6	180	0.0	1014.6	0	0.000	0.0
20110519 03:00	12.1	12.1	12.1	83	9.3	3	6	180	0.0	1014.6	0	0.025	0.0
20110519 03:05	12.1	12.1	12.1	82	9.1	2	5	180	0.0	1014.6	0	0.000	0.0
20110519 03:10	12.1	12.1	12.1	82	9.1	2	5	180	0.0	1014.6	0	0.000	0.0
20110519 03:15	12.0	12.0	12.0	82	9.0	2	6	180	0.0	1014.7	0	0.000	0.0
20110519 03:20	12.0	12.0	12.0	82	9.0	3	6	180	0.0	1014.6	0	0.000	0.0
20110519 03:25	11.9	11.9	11.9	82	9.0	5	8	180	0.0	1014.7	0	0.000	0.0
20110519 03:30	11.9	11.9	11.9	82	8.9	3	8	180	0.0	1014.6	0	0.000	0.0
20110519 03:35	11.8	11.8	11.8	82	8.9	3	8	180	0.0	1014.6	0	0.000	0.0
20110519 03:40	11.8	11.8	11.8	82	8.8	2	6	180	0.0	1014.5	0	0.000	0.0
20110519 03:45	11.7	11.7	11.7	82	8.8	2	5	180	0.0	1014.5	0	0.000	0.0
20110519 03:50	11.7	11.7	11.7	82	8.8	0	5	180	0.0	1014.5	0	0.000	0.0
20110519 03:55	11.7	11.7	11.7	82	8.7	3	6	180	0.0	1014.5	0	0.000	0.0
20110519 04:00	11.7	11.7	11.7	82	8.7	3	5	180	0.0	1014.5	0	0.025	0.0
20110519 04:05	11.7	11.7	11.7	82	8.7	2	6	180	0.0	1014.5	0	0.000	0.0
20110519 04:10	11.6	11.6	11.6	82	8.6	2	6	180	0.0	1014.5	0	0.000	0.0
20110519 04:15	11.6	11.6	11.6	82	8.6	0	3	180	0.0	1014.6	0	0.000	0.0
20110519 04:20	11.5	11.5	11.5	82	8.5	2	5	180	0.0	1014.6	0	0.000	0.0
20110519 04:25	11.4	11.4	11.4	82	8.5	0	3	180	0.0	1014.7	0	0.000	0.0
20110519 04:30	11.3	11.3	11.3	82	8.3	2	5	180	0.0	1014.9	0	0.000	0.0
20110519 04:35	11.2	11.2	11.2	83	8.4	0	5	180	0.0	1014.9	0	0.000	0.0
20110519 04:40	10.9	10.9	10.9	83	8.2	3	6	180	0.0	1014.9	0	0.000	0.0
20110519 04:45	10.8	10.8	10.8	84	8.2	5	8	180	0.0	1014.9	0	0.000	0.0
20110519 04:50	10.7	10.7	10.7	84	8.1	3	6	180	0.0	1014.9	0	0.000	0.0
20110519 04:55	10.6	10.6	10.6	84	8.0	3	6	180	0.0	1014.9	0	0.000	0.0
20110519 05:00	10.6	10.6	10.6	84	8.0	3	6	180	0.0	1015.0	0	0.025	0.0
20110519 05:05	10.5	10.5	10.5	85	8.1	3	6	180	0.0	1014.9	0	0.000	0.0
20110519 05:10	10.4	10.4	10.4	85	8.0	2	6	180	0.0	1014.9	0	0.000	0.0
20110519 05:15	10.4	10.4	10.4	85	8.0	3	6	180	0.0	1014.9	0	0.000	0.0
20110519 05:20	10.4	10.4	10.4	85	8.0	2	5	180	0.0	1015.0	0	0.000	0.0
20110519 05:25	10.4	10.4	10.4	85	8.0	5	6	180	0.0	1015.0	0	0.000	0.0
20110519 05:30	10.4	10.4	10.4	85	8.0	5	6	180	0.0	1015.1	0	0.000	0.0
20110519 05:35	10.4	10.4	10.4	85	8.0	3	6	180	0.0	1015.0	3	0.000	0.0
20110519 05:40	10.3	10.3	10.3	85	7.9	2	5	180	0.0	1015.0	7	0.000	0.0
20110519 05:45	10.3	10.3	10.3	85	7.9	0	2	180	0.0	1015.0	10	0.000	0.0
20110519 05:50	10.4	10.4	10.4	85	8.0	2	6	180	0.0	1015.1	12	0.000	0.0
20110519 05:55	10.4	10.4	10.4	85	8.0	3	6	180	0.0	1015.1	14	0.000	0.0
20110519 06:00	10.4	10.4	10.4	85	8.0	3	6	180	0.0	1015.2	17	0.000	0.0
20110519 06:05	10.6	10.6	10.6	85	8.1	2	8	180	0.0	1015.4	20	0.000	0.0
20110519 06:10	10.7	10.7	10.7	85	8.2	3	8	180	0.0	1015.3	23	0.000	0.0
20110519 06:15	10.7	10.7	10.7	85	8.3	2	5	180	0.0	1015.4	28	0.000	0.0
20110519 06:20	10.8	10.8	10.8	85	8.4	2	6	180	0.0	1015.4	34	0.000	0.0
20110519 06:25	10.8	10.8	10.8	84	8.2	5	8	180	0.0	1015.3	39	0.000	0.0
20110519 06:30	10.8	10.8	10.8	84	8.2	5	6	180	0.0	1015.3	41	0.000	0.0
20110519 06:35	10.9	10.9	10.9	84	8.3	3	6	180	0.0	1015.4	44	0.000	0.0
20110519 06:40	10.9	10.9	10.9	84	8.3	5	8	180	0.0	1015.3	46	0.000	0.0
20110519 06:45	10.9	10.9	10.9	84	8.3	5	8	180	0.0	1015.4	46	0.000	0.0
20110519 06:50	11.1	11.1	11.1	84	8.5	5	10	202	0.0	1015.4	48	0.000	0.0
20110519 06:55	11.2	11.2	11.2	84	8.6	5	8	202	0.0	1015.5	59	0.000	0.0
20110519 07:00	11.3	11.3	11.3	84	8.7	3	8	202	0.0	1015.5	68	0.025	0.0
20110519 07:05	11.6	11.6	11.6	83	8.8	3	6	202	0.0	1015.6	176	0.000	0.0
20110519 07:10	11.8	11.8	11.8	83	9.0	3	8	180	0.0	1015.6	214	0.000	0.1
20110519 07:15	12.1	12.1	12.1	82	9.1	2	6	180	0.0	1015.5	228	0.000	0.5
20110519 07:20	12.4	12.4	12.4	81	9.2	5	8	202	0.0	1015.5	128	0.000	0.5
20110519 07:25	12.6	12.6	12.6	81	9.4	5	8	202	0.0	1015.5	120	0.000	0.5
20110519 07:30	12.7	12.7	12.7	80	9.4	6	10	202	0.0	1015.6	121	0.000	0.6
20110519 07:35	12.8	12.8	12.8	80	9.5	5	10	202	0.0	1015.6	115	0.000	0.6
20110519 07:40	13.0	13.0	13.0	80	9.6	6	10	202	0.0	1015.6	121	0.000	0.7
20110519 07:45	13.2	13.2	13.2	80	9.8	6	10	202	0.0	1015.6	140	0.000	0.7
20110519 07:50	13.3	13.3	13.3	80	10.0	6	11	202	0.0	1015.6	106	0.000	0.8
20110519 07:55	13.6	13.6	13.6	80	10.2	6	10	202	0.0	1015.6	108	0.000	0.8
20110519 08:00	13.8	13.8	13.8	80	10.4	5	8	202	0.0	1015.6	173	0.076	1.0
20110519 08:05	14.1	14.1	14.1	79	10.5	5	8	202	0.0	1015.9	250	0.000	1.1
20110519 08:10	14.6	14.6	14.6	77	10.6	5	10	202	0.0	1015.8	341	0.000	1.2
20110519 08:15	15.0	15.0	15.0	75	10.6	3	8	202	0.0	1015.9	352	0.000	1.3
20110519 08:20	15.6	15.6	15.6	74	11.0	2	10	202	0.0	1015.7	364	0.000	1.3
20110519 08:25	16.1	16.1	16.1	71	10.8	5	10	225	0.0	1015.7	372	0.000	1.4
20110519 08:30	16.6	16.6	16.6	68	10.6	6	11	225	0.0	1015.6	390	0.000	1.5
20110519 08:35	16.9	16.9	16.9	66	10.5	6	11	225	0.0	1015.6	402	0.000	1.6
20110519 08:40	17.2	17.2	17.2	66	10.8	3	10	225	0.0	1015.6	416	0.000	1.7
20110519 08:45	17.4	17.4	17.4	65	10.8	5	11	248	0.0	1015.6	426	0.000	1.8
20110519 08:50	17.7	17.7	17.7	63	10.5	5	8	270	0.0	1015.6	441	0.000	1.9
20110519 08:55	17.8	17.8	17.8	63	10.6	5	10	270	0.0	1015.5	-100000	0.000	2.0
20110519 09:00	17.9	17.9	17.9	63	10.8	5	11	270	0.0	1015.5	478	0.229	2.2
20110519 09:05	18.1	18.1	18.1	62	10.7	5	10	248	0.0	1015.8	483	0.000	2.2
20110519 09:10	18.3	18.3	18.3	63	11.1	3	8	270	0.0	1015.8	492	0.000	2.4
20110519 09:15	18.4	18.4	18.4	62	11.0	5	8	270	0.0	1015.8	503	0.000	2.5
20110519 09:20	18.4	18.4	18.4	63	11.3	5	11	248	0.0	1015.8	518	0.000	2.6
20110519 09:25	18.7	18.7	18.7	63	11.5	5	8	248	0.0	1015.8	526	0.000	2.7
20110519 09:30	18.9	18.9	18.9	61	11.3	5	11	248	0.0	1015.9	539	0.000	2.8
20110519 09:35	19.1	19.1	19.1	60	11.1	8	14	270	0.0	1015.8	553	0.000	3.0
20110519 09:40	19.2	19.2	19.2	61	11.5	5	11	248	0.0	1015.8	567	0.000	3.1
20110519 09:45	19.4	19.4	19.4	60	11.4	3	8	248	0.0	1015.8	582	0.000	3.3
20110519 09:50	19.7	19.7	19.7	59	11.4	2	8	270	0.0	1015.7	514	0.000	3.2
20110519 09:55	19.8	19.8	19.8	59	11.5	2	5	270	0.0	1015.7	520	0.000	3.2
20110519 10:00	19.8	19.8	19.8	58	11.3	3	10	292	0.0	1015.7	449	0.305	3.3
20110519 10:05	20.0	20.0	20.0	56	10.9	2	6	270	0.0	1015.9	653	0.000	3.7
20110519 10:10	20.2	20.2	20.2	55	10.9	3	10	270	0.0	1016.0	692	0.000	4.1
20110519 10:15	20.5	20.5	20.5	54	10.9	3	8	248	0.0	1015.9	678	0.000	4.2
20110519 10:20	20.7	20.7	20.7	54	11.0	2	6	248	0.0	1015.8	668	0.000	4.4
20110519 10:25	20.8	20.8	20.8	55	11.5	3	8	270	0.0	1015.8	674	0.000	4.5
20110519 10:30	20.8	20.8	20.8	53	10.9	5	8	270	0.0	1015.8	681	0.000	4.6
20110519 10:35	20.8	20.8	20.8	52	10.6	5	10	248	0.0	1015.7	693	0.000	4.6
20110519 10:40	20.8	20.8	20.8	52	10.6	5	10	225	0.0	1015.7	703	0.000	4.9
20110519 10:45	21.0	21.0	21.0	52	10.8	3	8	248	0.0	1015.6	713	0.000	5.0
20110519 10:50	21.2	21.2	21.2	51	10.6	3	11	292	0.0	1015.7	721	0.000	5.2
20110519 10:55	21.4	21.4	21.4	51	10.8	6	11	270	0.0	1015.7	727	0.000	5.3
20110519 11:00	21.6	21.6	21.6	50	10.7	6	14	270	0.0	1015.6	739	0.432	5.4
20110519 11:05	21.6	21.6	21.6	50	10.7	3	10	292	0.0	1015.7	749	0.000	5.6
20110519 11:10	21.8	21.8	21.8	48	10.3	2	5	292	0.0	1015.8	760	0.000	5.8
20110519 11:15	22.0	22.0	22.0	49	10.8	2	6	292	0.0	1015.6	768	0.000	5.9
20110519 11:20	22.2	22.2	22.2	51	11.5	2	10	315	0.0	1015.6	776	0.000	6.0
20110519 11:25	22.3	22.3	22.3	47	10.5	5	10	292	0.0	1015.6	782	0.000	6.2
20110519 11:30	22.3	22.3	22.3	47	10.4	5	8	292	0.0	1015.6	790	0.000	6.3
20110519 11:35	22.2	22.2	22.2	47	10.4	2	6	292	0.0	1015.6	798	0.000	6.4
20110519 11:40	22.3	22.3	22.3	47	10.5	3	10	292	0.0	1015.6	802	0.000	6.5
20110519 11:45	22.5	22.5	22.5	49	11.2	3	10	315	0.0	1015.6	807	0.000	6.6
20110519 11:50	22.7	22.7	22.7	49	11.4	3	11	315	0.0	1015.5	811	0.000	6.7
20110519 11:55	22.9	22.9	22.9	45	10.3	5	10	292	0.0	1015.6	820	0.000	6.8
20110519 12:00	22.8	22.8	22.8	47	10.9	2	8	315	0.0	1015.5	829	0.508	7.0
20110519 12:05	22.8	22.8	22.8	47	10.9	3	8	292	0.0	1015.6	831	0.000	7.1
20110519 12:10	23.0	23.0	23.0	49	11.7	2	10	292	0.0	1015.6	838	0.000	7.2
20110519 12:15	23.1	23.1	23.1	46	10.8	3	8	292	0.0	1015.5	838	0.000	7.3
20110519 12:20	23.1	23.1	23.1	44	10.1	3	8	270	0.0	1015.5	842	0.000	7.4
20110519 12:25	23.2	23.2	23.2	45	10.6	2	8	270	0.0	1015.4	850	0.000	7.5
20110519 12:30	23.2	23.2	23.2	45	10.6	3	10	45	0.0	1015.3	851	0.000	7.5
20110519 12:35	23.0	23.0	23.0	45	10.4	3	6	22	0.0	1015.3	851	0.000	7.6
20110519 12:40	22.9	22.9	22.9	46	10.6	3	8	22	0.0	1015.3	861	0.000	7.7
20110519 12:45	23.0	23.0	23.0	46	10.7	3	8	68	0.0	1015.3	868	0.000	7.8
20110519 12:50	23.4	23.4	23.4	46	11.1	2	6	45	0.0	1015.2	867	0.000	7.8
20110519 12:55	23.6	23.6	23.6	45	10.9	2	5	45	0.0	1015.2	869	0.000	7.8
20110519 13:00	23.7	23.7	23.7	43	10.3	2	6	45	0.0	1015.1	872	0.533	7.8
20110519 13:05	23.7	23.7	23.7	43	10.4	2	6	45	0.0	1015.2	873	0.000	7.9
20110519 13:10	23.9	23.9	25.3	42	10.2	2	6	45	0.0	1015.2	872	0.000	7.9
20110519 13:15	24.2	24.2	25.4	43	10.8	5	10	90	0.0	1015.2	879	0.000	7.9
20110519 13:20	24.4	24.4	25.5	44	11.3	2	6	158	0.0	1015.0	882	0.000	8.0
20110519 13:25	24.8	24.8	25.7	44	11.7	2	10	158	0.0	1015.0	874	0.000	7.9
20110519 13:30	24.4	24.4	25.5	42	10.7	6	10	45	0.0	1014.9	870	0.000	7.7
20110519 13:35	24.1	24.1	25.3	39	9.3	2	6	45	0.0	1014.9	868	0.000	7.7
20110519 13:40	24.3	24.3	25.4	40	9.8	2	6	68	0.0	1014.8	865	0.000	7.6
20110519 13:45	24.6	24.6	25.5	39	9.7	2	8	68	0.0	1014.8	871	0.000	7.6
20110519 13:50	24.8	24.8	25.6	39	9.9	3	8	68	0.0	1014.8	862	0.000	7.6
20110519 13:55	24.7	24.7	25.5	40	10.2	5	11	112	0.0	1014.7	858	0.000	7.5
20110519 14:00	24.5	24.5	25.5	39	9.6	5	10	112	0.0	1014.6	861	0.559	7.4
20110519 14:05	24.4	24.4	25.4	39	9.6	3	6	112	0.0	1014.5	860	0.000	7.5
20110519 14:10	24.6	24.6	25.4	37	8.9	5	13	45	0.0	1014.6	867	0.000	7.5
20110519 14:15	24.6	24.6	25.4	37	8.9	3	10	68	0.0	1014.6	865	0.000	7.4
20110519 14:20	24.8	24.8	25.6	40	10.3	2	8	90	0.0	1014.5	862	0.000	7.3
20110519 14:25	25.1	25.1	25.6	37	9.4	2	5	90	0.0	1014.4	859	0.000	7.2
20110519 14:30	25.2	25.2	25.8	41	11.0	5	11	45	0.0	1014.4	852	0.000	7.0
20110519 14:35	24.8	24.8	25.6	42	11.0	6	11	45	0.0	1014.4	863	0.000	7.0
20110519 14:40	24.8	24.8	25.6	42	11.0	3	8	45	0.0	1014.3	890	0.000	6.5
20110519 14:45	24.7	24.7	25.6	41	10.5	6	11	45	0.0	1014.4	841	0.000	6.7
20110519 14:50	24.7	24.7	25.6	43	11.3	5	10	315	0.0	1014.2	826	0.000	6.5
20110519 14:55	24.7	24.7	25.6	41	10.6	8	16	22	0.0	1014.2	822	0.000	6.3
20110519 15:00	24.6	24.6	25.6	43	11.2	8	16	45	0.0	1014.1	812	0.584	6.2
20110519 15:05	24.6	24.6	25.6	44	11.5	6	11	45	0.0	1014.2	686	0.000	5.8
20110519 15:10	24.9	24.9	25.7	42	11.1	5	11	112	0.0	1014.1	785	0.000	5.9
20110519 15:15	24.9	24.9	25.7	42	11.1	6	11	68	0.0	1014.1	780	0.000	5.8
20110519 15:20	24.9	24.9	25.6	39	10.0	3	10	112	0.0	1014.0	794	0.000	5.8
20110519 15:25	25.1	25.1	25.8	41	10.9	3	8	112	0.0	1013.9	779	0.000	5.8
20110519 15:30	25.4	25.4	25.9	42	11.5	2	8	22	0.0	1013.8	771	0.000	5.6
20110519 15:35	25.7	25.7	26.0	40	11.1	3	10	22	0.0	1013.8	760	0.000	5.3
20110519 15:40	25.9	25.9	26.2	40	11.3	5	10	112	0.0	1013.7	748	0.000	5.3
20110519 15:45	25.8	25.8	26.0	38	10.4	2	6	135	0.0	1013.7	737	0.000	5.2
20110519 15:50	25.7	25.7	26.0	41	11.4	5	10	68	0.0	1013.7	730	0.000	5.0
20110519 15:55	25.6	25.6	26.0	40	10.9	6	14	68	0.0	1013.6	715	0.000	4.8
20110519 16:00	25.4	25.4	25.9	40	10.8	8	16	45	0.0	1013.7	700	0.508	4.6
20110519 16:05	25.2	25.2	25.8	40	10.6	10	16	22	0.0	1013.7	670	0.000	4.3
20110519 16:10	25.2	25.2	25.8	41	11.0	3	10	22	0.0	1013.6	662	0.000	4.2
20110519 16:15	25.3	25.3	25.9	42	11.5	6	14	45	0.0	1013.6	659	0.000	4.1
20110519 16:20	25.3	25.3	25.8	40	10.7	8	16	68	0.0	1013.6	658	0.000	4.0
20110519 16:25	25.1	25.1	25.7	40	10.5	5	10	45	0.0	1013.6	635	0.000	3.7
20110519 16:30	25.1	25.1	25.7	39	10.2	3	8	45	0.0	1013.5	611	0.000	3.5
20110519 16:35	25.3	25.3	25.9	41	11.1	2	8	45	0.0	1013.5	626	0.000	3.6
20110519 16:40	25.4	25.4	25.9	40	10.8	6	18	45	0.0	1013.5	617	0.000	3.5
20110519 16:45	25.6	25.6	26.0	40	10.9	5	11	135	0.0	1013.4	603	0.000	3.4
20110519 16:50	25.7	25.7	26.0	39	10.7	3	8	135	0.0	1013.5	586	0.000	3.2
20110519 16:55	25.6	25.6	26.0	39	10.6	3	8	90	0.0	1013.4	567	0.000	3.0
20110519 17:00	25.8	25.8	26.0	37	10.0	2	8	112	0.0	1013.4	551	0.432	2.8
20110519 17:05	26.0	26.0	26.2	39	11.0	2	5	112	0.0	1013.2	534	0.000	2.6
20110519 17:10	25.8	25.8	26.0	39	10.8	5	11	112	0.0	1013.2	178	0.000	2.0
20110519 17:15	25.3	25.3	25.8	40	10.7	2	6	112	0.0	1013.2	104	0.000	2.0
20110519 17:20	25.1	25.1	25.8	41	10.9	3	6	112	0.0	1013.2	408	0.000	2.1
20110519 17:25	25.1	25.1	25.8	41	10.9	6	14	68	0.0	1013.1	483	0.000	2.2
20110519 17:30	25.1	25.1	25.7	41	10.9	8	14	68	0.0	1013.2	475	0.000	2.1
20110519 17:35	25.1	25.1	25.7	40	10.5	5	8	68	0.0	1013.2	461	0.000	2.0
20110519 17:40	25.2	25.2	25.8	40	10.6	5	10	22	0.0	1013.1	445	0.000	1.8
20110519 17:45	25.3	25.3	25.8	39	10.3	3	8	45	0.0	1013.1	429	0.000	1.7
20110519 17:50	25.3	25.3	25.8	40	10.7	3	8	45	0.0	1013.1	413	0.000	1.6
20110519 17:55	25.4	25.4	25.9	40	10.8	2	6	68	0.0	1013.1	400	0.000	1.5
20110519 18:00	25.4	25.4	25.9	41	11.2	5	10	68	0.0	1013.0	388	0.305	1.4
20110519 18:05	25.4	25.4	25.9	41	11.2	2	5	112	0.0	1012.9	374	0.000	1.3
20110519 18:10	25.3	25.3	25.8	40	10.7	6	16	45	0.0	1012.8	361	0.000	1.3
20110519 18:15	25.1	25.1	25.8	42	11.2	6	14	22	0.0	1012.9	348	0.000	1.2
20110519 18:20	25.1	25.1	25.7	41	10.9	6	10	45	0.0	1012.9	335	0.000	1.1
20110519 18:25	24.9	24.9	25.7	40	10.4	6	10	22	0.0	1012.9	321	0.000	1.0
20110519 18:30	24.9	24.9	25.7	42	11.1	6	14	68	0.0	1012.8	306	0.000	0.9
20110519 18:35	24.9	24.9	25.7	41	10.8	6	11	68	0.0	1012.8	296	0.000	0.9
20110519 18:40	24.9	24.9	25.6	40	10.3	6	13	45	0.0	1012.8	284	0.000	0.8
20110519 18:45	24.8	24.8	25.6	41	10.7	5	8	45	0.0	1012.8	268	0.000	0.7
20110519 18:50	24.8	24.8	25.6	42	11.0	5	10	45	0.0	1012.8	253	0.000	0.7
20110519 18:55	24.6	24.6	25.6	42	10.8	5	11	22	0.0	1012.8	238	0.000	0.6
20110519 19:00	24.4	24.4	25.5	42	10.7	5	11	22	0.0	1012.9	224	0.254	0.6
20110519 19:05	24.4	24.4	25.5	42	10.6	5	10	45	0.0	1012.6	207	0.000	0.5
20110519 19:10	24.3	24.3	25.4	40	9.9	5	10	45	0.0	1012.6	101	0.000	0.3
20110519 19:15	24.3	24.3	25.4	40	9.9	3	8	45	0.0	1012.7	55	0.000	0.0
20110519 19:20	24.3	24.3	25.4	41	10.2	2	6	45	0.0	1012.8	54	0.000	0.0
20110519 19:25	24.1	24.1	25.4	42	10.4	3	5	45	0.0	1012.7	53	0.000	0.0
20110519 19:30	24.0	24.0	25.3	41	9.9	2	5	45	0.0	1012.8	51	0.000	0.0
20110519 19:35	23.9	23.9	25.3	42	10.2	2	5	45	0.0	1012.8	49	0.000	0.0
20110519 19:40	23.9	23.9	25.3	42	10.2	0	2	45	0.0	1012.8	49	0.000	0.0
20110519 19:45	23.8	23.8	23.8	42	10.1	0	3	45	0.0	1012.9	49	0.000	0.0
20110519 19:50	23.7	23.7	23.7	43	10.3	2	5	45	0.0	1012.9	47	0.000	0.0
20110519 19:55	23.5	23.5	23.5	43	10.2	3	5	45	0.0	1012.9	45	0.000	0.0
20110519 20:00	23.4	23.4	23.4	44	10.4	2	5	45	0.0	1012.9	42	0.076	0.0
20110519 20:05	23.2	23.2	23.2	45	10.6	0	3	45	0.0	1012.5	35	0.000	0.0
20110519 20:10	23.1	23.1	23.1	46	10.8	2	5	45	0.0	1012.5	32	0.000	0.0
20110519 20:15	22.9	22.9	22.9	45	10.3	2	6	45	0.0	1012.6	31	0.000	0.0
20110519 20:20	22.8	22.8	22.8	47	10.9	2	6	45	0.0	1012.5	25	0.000	0.0
20110519 20:25	22.7	22.7	22.7	46	10.4	2	5	68	0.0	1012.6	21	0.000	0.0
20110519 20:30	22.5	22.5	22.5	45	10.0	2	3	68	0.0	1012.7	18	0.000	0.0
20110519 20:35	22.4	22.4	22.4	47	10.5	0	2	68	0.0	1012.7	15	0.000	0.0
20110519 20:40	22.2	22.2	22.2	48	10.6	0	2	68	0.0	1012.6	13	0.000	0.0
20110519 20:45	21.9	21.9	21.9	49	10.7	0	3	68	0.0	1012.6	10	0.000	0.0
20110519 20:50	21.7	21.7	21.7	50	10.8	0	2	68	0.0	1012.7	2	0.000	0.0
20110519 20:55	21.5	21.5	21.5	49	10.3	0	3	68	0.0	1012.6	0	0.000	0.0
20110519 21:00	21.3	21.3	21.3	50	10.5	0	2	68	0.0	1012.7	0	0.025	0.0
20110519 21:05	21.2	21.2	21.2	51	10.7	0	3	68	0.0	1012.7	0	0.000	0.0
20110519 21:10	21.0	21.0	21.0	53	11.0	0	2	68	0.0	1012.7	0	0.000	0.0
20110519 21:15	20.8	20.8	20.8	52	10.6	0	2	68	0.0	1012.9	0	0.000	0.0
20110519 21:20	20.7	20.7	20.7	53	10.8	0	2	68	0.0	1013.1	0	0.000	0.0
20110519 21:25	20.7	20.7	20.7	55	11.3	2	16	68	0.0	1013.2	0	0.000	0.0
20110519 21:30	20.5	20.5	20.5	54	10.9	2	8	45	0.0	1013.3	0	0.000	0.0
20110519 21:35	20.4	20.4	20.4	53	10.5	3	11	0	0.0	1013.4	0	0.000	0.0
20110519 21:40	20.4	20.4	20.4	54	10.8	5	11	22	0.0	1013.7	0	0.000	0.0
20110519 21:45	20.3	20.3	20.3	54	10.7	3	11	22	0.0	1013.8	0	0.000	0.0
20110519 21:50	20.3	20.3	20.3	54	10.7	3	10	22	0.0	1014.0	0	0.000	0.0
20110519 21:55	20.2	20.2	20.2	56	11.1	2	8	22	0.0	1013.9	0	0.000	0.0
20110519 22:00	20.1	20.1	20.1	61	12.3	0	5	22	0.0	1014.0	0	0.051	0.0
20110519 22:05	19.8	19.8	19.8	63	12.6	0	5	22	0.0	1014.1	0	0.000	0.0
20110519 22:10	19.6	19.6	19.6	62	12.1	2	5	22	0.0	1014.0	0	0.000	0.0
20110519 22:15	19.3	19.3	19.3	65	12.6	0	2	22	0.0	1014.1	0	0.000	0.0
20110519 22:20	19.1	19.1	19.1	68	13.0	0	5	22	0.0	1014.5	0	0.000	0.0
20110519 22:25	18.6	18.6	18.6	67	12.3	10	26	315	0.0	1014.8	0	0.000	0.0
20110519 22:30	17.8	17.8	17.8	65	11.2	18	34	292	0.0	1014.7	0	0.000	0.0
20110519 22:35	17.2	17.2	17.2	70	11.6	16	24	315	0.6	1014.7	0	0.000	0.0
20110519 22:40	16.5	16.5	16.5	74	11.8	13	26	292	0.6	1014.9	0	0.000	0.0
20110519 22:45	16.1	16.1	16.1	73	11.2	21	37	292	0.2	1014.9	0	0.000	0.0
20110519 22:50	16.1	16.1	16.1	73	11.2	21	35	292	0.0	1015.3	0	0.000	0.0
20110519 22:55	15.9	15.9	15.9	72	10.9	16	37	270	0.0	1015.6	0	0.000	0.0
20110519 23:00	15.9	15.9	15.9	71	10.6	21	37	270	0.2	1016.0	0	0.076	0.0
20110519 23:05	15.8	15.8	15.8	72	10.7	18	31	270	0.0	1016.5	0	0.000	0.0
20110519 23:10	15.5	15.5	15.5	73	10.7	14	24	225	0.0	1017.1	0	0.000	0.0
20110519 23:15	15.3	15.3	15.3	73	10.5	14	27	225	0.0	1017.4	0	0.000	0.0
20110519 23:20	15.2	15.2	15.2	71	10.0	21	39	225	0.0	1017.5	0	0.000	0.0
20110519 23:25	15.2	15.2	15.2	72	10.2	14	34	225	0.2	1017.6	0	0.000	0.0
20110519 23:30	15.0	15.0	15.0	75	10.6	19	35	225	0.2	1017.5	0	0.000	0.0
20110519 23:35	14.5	14.5	14.5	77	10.5	16	31	225	0.4	1017.4	0	0.000	0.0
20110519 23:40	14.1	14.1	14.1	79	10.5	18	29	248	0.2	1017.4	0	0.000	0.0
20110519 23:45	13.9	13.9	13.9	81	10.7	16	27	270	0.0	1017.1	0	0.000	0.0
20110519 23:50	13.8	13.8	13.8	82	10.8	19	29	270	0.0	1017.0	0	0.000	0.0
20110519 23:55	13.7	13.7	13.7	83	10.9	18	32	292	0.2	1016.9	0	0.000	0.0



Please note the license to use and transfer of this data:
http://creativecommons.org/licenses/by-nc-sa/3.0/deed.en

Bitte beachten sie die Lizenz zur Verwertung und Weitergabe der Daten:
http://creativecommons.org/licenses/by-nc-sa/3.0/deed.de

zurück zur Übersicht der Archivdaten (Monats und Tagesdaten)

Cookies helfen bei der Bereitstellung von Inhalten. Durch die Nutzung dieser Seiten erklärst du dich damit einverstanden, dass Cookies auf deinem Rechner gespeichert werden. Weitere Information